This is the latest recevied weather packets stored in our database for station/object DL8TF-13. If no packets are shown the sender has not sent any weather packets the latest 10 day(s).
| Time | Temp. | Humidity | Pressure | Rain* | Wind** | Luminosity | Snow |
|---|---|---|---|---|---|---|---|
| 1777839834 | 18.89° C | 37% | 983 hPa | - | - | - | - |
| 1777827833 | 23.89° C | 34% | 980 hPa | - | - | - | - |
| 1777827233 | 23.89° C | 34% | 980 hPa | - | - | - | - |
| 1777826033 | 25.56° C | 31% | 980 hPa | - | - | - | - |
| 1777817632 | 37.22° C | 14% | 981 hPa | - | - | - | - |
| 1777817032 | 37.78° C | 14% | 981 hPa | - | - | - | - |
| 1777808030 | 31.67° C | 20% | 982 hPa | - | - | - | - |
| 1777804429 | 22.22° C | 34% | 983 hPa | - | - | - | - |
| 1777803829 | 22.22° C | 33% | 983 hPa | - | - | - | - |
| 1777800829 | 21.67° C | 32% | 983 hPa | - | - | - | - |
| 1777800229 | 21.67° C | 32% | 983 hPa | - | - | - | - |
| 1777799629 | 21.11° C | 36% | 983 hPa | - | - | - | - |
| 1777799029 | 20.56° C | 37% | 983 hPa | - | - | - | - |
| 1777798429 | 19.44° C | 39% | 984 hPa | - | - | - | - |
| 1777797228 | 18.33° C | 45% | 984 hPa | - | - | - | - |
| 1777796628 | 17.78° C | 48% | 984 hPa | - | - | - | - |
| 1777796028 | 17.22° C | 48% | 984 hPa | - | - | - | - |
| 1777795428 | 17.22° C | 48% | 984 hPa | - | - | - | - |
| 1777794828 | 16.67° C | 48% | 984 hPa | - | - | - | - |
| 1777794228 | 16.11° C | 47% | 984 hPa | - | - | - | - |
| 1777793628 | 15.56° C | 50% | 984 hPa | - | - | - | - |
| 1777793028 | 15.56° C | 52% | 984 hPa | - | - | - | - |
| 1777792428 | 15° C | 51% | 984 hPa | - | - | - | - |
| 1777791828 | 15° C | 54% | 984 hPa | - | - | - | - |
| 1777791228 | 14.44° C | 57% | 984 hPa | - | - | - | - |
* Rain since midnight (hover to see other rain measurements)
** Current wind speed in m/s (hover to see current wind gust speed)